createdAt,value
2018-09-27T00:00:04.245Z,8.80
2018-09-27T00:02:32.798Z,6.57
2018-09-27T00:05:01.355Z,9.40
2018-09-27T00:07:29.930Z,10.93
2018-09-27T00:09:58.478Z,6.37
2018-09-27T00:12:26.987Z,7.00
2018-09-27T00:14:55.574Z,8.13
2018-09-27T00:17:24.153Z,6.87
2018-09-27T00:19:52.886Z,8.23
2018-09-27T00:22:21.468Z,6.43
2018-09-27T00:24:50.018Z,7.67
2018-09-27T00:27:18.562Z,8.77
2018-09-27T00:29:47.101Z,9.43
2018-09-27T00:32:15.706Z,8.53
2018-09-27T00:34:44.282Z,12.10
2018-09-27T00:37:12.838Z,8.53
2018-09-27T00:39:41.420Z,12.97
2018-09-27T00:42:10.013Z,9.23
2018-09-27T00:44:38.569Z,7.20
2018-09-27T00:47:07.119Z,7.30
2018-09-27T00:49:35.677Z,9.00
2018-09-27T00:52:04.220Z,9.80
2018-09-27T00:54:32.984Z,9.20
2018-09-27T00:57:01.638Z,7.97
2018-09-27T00:59:30.217Z,12.63
2018-09-27T01:01:58.799Z,9.07
2018-09-27T01:04:28.251Z,8.97
2018-09-27T01:06:56.799Z,12.27
2018-09-27T01:09:25.431Z,13.57
2018-09-27T01:11:54.001Z,11.00
2018-09-27T01:14:22.553Z,12.33
2018-09-27T01:16:51.112Z,16.90
2018-09-27T01:19:19.678Z,9.57
2018-09-27T01:21:48.367Z,9.27
2018-09-27T01:24:16.949Z,8.90
2018-09-27T01:26:45.530Z,14.93
2018-09-27T01:29:14.089Z,9.13
2018-09-27T01:31:42.645Z,11.13
2018-09-27T01:34:11.218Z,10.33
2018-09-27T01:36:39.758Z,10.13
2018-09-27T01:39:08.781Z,10.77
2018-09-27T01:41:37.342Z,9.10
2018-09-27T01:44:05.994Z,9.60
2018-09-27T01:46:34.539Z,10.60
2018-09-27T01:49:03.114Z,10.40
2018-09-27T01:51:31.789Z,10.53
2018-09-27T01:54:00.320Z,9.73
2018-09-27T01:56:28.877Z,9.23
2018-09-27T01:58:57.414Z,12.53
2018-09-27T02:01:25.984Z,12.43
2018-09-27T02:03:54.597Z,12.33
2018-09-27T02:06:23.141Z,8.60
2018-09-27T02:08:51.694Z,11.23
2018-09-27T02:11:20.238Z,8.87
2018-09-27T02:13:48.839Z,13.23
2018-09-27T02:16:17.379Z,19.63
2018-09-27T02:18:45.945Z,10.90
2018-09-27T02:21:14.494Z,10.00
2018-09-27T02:23:43.018Z,9.50
2018-09-27T02:26:18.092Z,14.03
2018-09-27T02:28:46.637Z,9.40
2018-09-27T02:31:15.259Z,11.63
2018-09-27T02:33:43.806Z,7.30
2018-09-27T02:36:12.389Z,8.80
2018-09-27T02:38:40.941Z,11.00
2018-09-27T02:41:09.495Z,7.10
2018-09-27T02:43:38.038Z,15.30
2018-09-27T02:46:06.653Z,8.03
2018-09-27T02:48:35.226Z,8.33
2018-09-27T02:51:03.791Z,10.60
2018-09-27T02:53:32.378Z,7.87
2018-09-27T02:56:00.937Z,9.83
2018-09-27T02:58:29.557Z,13.80
2018-09-27T03:00:58.113Z,9.97
2018-09-27T03:03:26.673Z,10.33
2018-09-27T03:05:55.582Z,15.07
2018-09-27T03:08:24.186Z,9.93
2018-09-27T03:10:53.083Z,12.13
2018-09-27T03:13:21.807Z,9.43
2018-09-27T03:15:50.385Z,16.50
2018-09-27T03:18:18.960Z,13.27
2018-09-27T03:20:47.563Z,11.53
2018-09-27T03:23:16.134Z,17.20
2018-09-27T03:25:44.720Z,12.57
2018-09-27T03:28:13.490Z,15.70
2018-09-27T03:30:42.097Z,15.40
2018-09-27T03:38:18.252Z,13.10
2018-09-27T03:40:46.826Z,14.10
2018-09-27T03:43:15.378Z,20.37
2018-09-27T03:45:43.940Z,18.10
2018-09-27T03:48:12.510Z,13.27
2018-09-27T03:50:41.125Z,14.10
2018-09-27T03:53:09.674Z,15.03
2018-09-27T03:55:38.226Z,12.37
2018-09-27T03:58:06.914Z,10.83
2018-09-27T04:00:35.470Z,12.20
2018-09-27T04:03:04.176Z,12.27
2018-09-27T04:05:32.758Z,10.40
2018-09-27T04:08:01.358Z,22.53
2018-09-27T04:10:29.913Z,16.90
2018-09-27T04:12:58.609Z,15.00
2018-09-27T04:15:27.186Z,15.53
2018-09-27T04:17:55.771Z,15.80
2018-09-27T04:20:24.354Z,12.83
2018-09-27T04:22:52.900Z,15.60
2018-09-27T04:25:21.444Z,11.57
2018-09-27T04:27:50.194Z,11.10
2018-09-27T04:30:19.346Z,18.03
2018-09-27T04:32:47.906Z,12.70
2018-09-27T04:35:16.476Z,13.90
2018-09-27T04:37:45.064Z,16.83
2018-09-27T04:40:13.654Z,11.80
2018-09-27T04:42:42.246Z,16.47
2018-09-27T04:45:10.819Z,21.80
2018-09-27T04:47:39.391Z,12.73
2018-09-27T04:50:08.093Z,17.30
2018-09-27T04:52:36.922Z,10.23
2018-09-27T04:55:05.567Z,18.23
2018-09-27T04:57:34.126Z,15.27
2018-09-27T05:00:02.940Z,11.53
2018-09-27T05:02:31.417Z,10.27
2018-09-27T05:05:00.117Z,13.90
2018-09-27T05:07:28.682Z,12.63
2018-09-27T05:09:57.239Z,7.73
2018-09-27T05:12:25.772Z,12.47
2018-09-27T05:14:54.528Z,17.83
2018-09-27T05:17:23.085Z,15.60
2018-09-27T05:19:51.697Z,11.40
2018-09-27T05:22:20.318Z,14.80
2018-09-27T05:24:48.931Z,12.07
2018-09-27T05:27:17.759Z,20.03
2018-09-27T05:29:46.394Z,12.03
2018-09-27T05:32:15.002Z,9.30
2018-09-27T05:34:43.760Z,15.20
2018-09-27T05:37:12.562Z,11.27
2018-09-27T05:39:41.193Z,13.90
2018-09-27T05:42:09.675Z,17.07
2018-09-27T05:44:38.246Z,12.57
2018-09-27T05:47:07.065Z,19.50
2018-09-27T05:49:35.654Z,16.90
2018-09-27T05:52:04.317Z,21.30
2018-09-27T05:54:32.927Z,17.10
2018-09-27T05:57:01.537Z,14.17
2018-09-27T05:59:30.163Z,12.10
2018-09-27T06:01:58.822Z,17.30
2018-09-27T06:04:27.362Z,16.00
2018-09-27T06:06:56.248Z,13.30
2018-09-27T06:09:24.810Z,20.43
2018-09-27T06:11:53.426Z,13.10
2018-09-27T06:14:22.029Z,15.07
2018-09-27T06:16:50.615Z,23.80
2018-09-27T06:19:19.285Z,18.03
2018-09-27T06:21:47.826Z,14.73
2018-09-27T06:24:16.417Z,20.30
2018-09-27T06:26:45.064Z,17.13
2018-09-27T06:29:13.632Z,17.00
2018-09-27T06:31:42.174Z,10.20
2018-09-27T06:34:10.763Z,11.87
2018-09-27T06:36:39.335Z,18.53
2018-09-27T06:39:10.130Z,11.17
2018-09-27T06:41:38.651Z,15.43
2018-09-27T06:44:07.587Z,17.00
2018-09-27T06:46:36.138Z,12.77
2018-09-27T06:49:04.792Z,14.67
2018-09-27T06:51:33.337Z,17.40
2018-09-27T06:54:01.977Z,13.83
2018-09-27T06:56:30.585Z,11.73
2018-09-27T06:58:59.169Z,13.40
2018-09-27T07:01:27.726Z,12.00
2018-09-27T07:03:56.310Z,24.67
2018-09-27T07:06:24.921Z,16.23
2018-09-27T07:08:53.502Z,15.60
2018-09-27T07:11:22.102Z,14.47
2018-09-27T07:13:50.673Z,16.30
2018-09-27T07:16:19.251Z,26.00
2018-09-27T07:18:47.830Z,17.30
2018-09-27T07:21:16.401Z,14.80
2018-09-27T07:23:44.949Z,16.20
2018-09-27T07:26:13.556Z,13.40
2018-09-27T07:28:42.166Z,17.50
2018-09-27T07:31:10.923Z,16.27
2018-09-27T07:33:39.636Z,16.20
2018-09-27T07:36:08.345Z,14.70
2018-09-27T07:38:37.496Z,10.50
2018-09-27T07:41:06.219Z,14.30
2018-09-27T07:43:34.873Z,13.80
2018-09-27T07:46:04.067Z,16.60
2018-09-27T07:48:32.809Z,12.57
2018-09-27T07:51:01.383Z,11.87
2018-09-27T07:53:30.016Z,15.87
2018-09-27T07:55:58.679Z,15.03
2018-09-27T07:58:27.375Z,11.90
2018-09-27T08:00:55.973Z,12.90
2018-09-27T08:03:24.589Z,16.40
2018-09-27T08:05:53.262Z,13.40
2018-09-27T08:08:21.855Z,14.77
2018-09-27T08:10:50.486Z,13.40
2018-09-27T08:13:19.130Z,13.77
2018-09-27T08:15:47.828Z,14.63
2018-09-27T08:18:16.605Z,15.00
2018-09-27T08:20:49.516Z,17.30
2018-09-27T08:23:18.154Z,14.37
2018-09-27T08:25:46.812Z,16.93
2018-09-27T08:28:15.478Z,12.60
2018-09-27T08:30:44.116Z,15.30
2018-09-27T08:33:12.712Z,17.40
2018-09-27T08:35:41.298Z,11.40
2018-09-27T08:38:09.978Z,11.73
2018-09-27T08:40:38.576Z,20.07
2018-09-27T08:43:07.164Z,14.47
2018-09-27T08:45:35.975Z,17.03
2018-09-27T08:48:05.198Z,14.53
2018-09-27T08:50:34.277Z,14.27
2018-09-27T08:53:03.143Z,12.17
2018-09-27T08:55:32.033Z,20.20
2018-09-27T08:58:01.243Z,11.33
2018-09-27T09:00:30.157Z,12.80
2018-09-27T09:02:58.995Z,12.03
2018-09-27T09:05:27.736Z,14.53
2018-09-27T09:07:56.599Z,15.07
2018-09-27T09:10:25.398Z,18.00
2018-09-27T09:12:54.367Z,18.27
2018-09-27T09:15:23.255Z,22.47
2018-09-27T09:17:52.095Z,14.90
2018-09-27T09:20:20.873Z,10.13
2018-09-27T09:22:49.613Z,15.03
2018-09-27T09:25:18.578Z,13.07
2018-09-27T09:27:47.364Z,13.77
2018-09-27T09:30:16.219Z,23.90
2018-09-27T09:32:45.059Z,15.63
2018-09-27T09:35:14.008Z,13.87
2018-09-27T09:37:42.760Z,12.20
2018-09-27T09:40:11.598Z,15.90
2018-09-27T09:42:40.377Z,16.00
2018-09-27T09:45:09.166Z,19.90
2018-09-27T09:47:37.950Z,17.33
2018-09-27T09:50:06.852Z,17.20
2018-09-27T09:52:47.348Z,16.67
2018-09-27T09:55:16.488Z,10.23
2018-09-27T09:57:45.242Z,13.20
2018-09-27T10:00:14.071Z,14.03
2018-09-27T10:02:42.927Z,14.53
2018-09-27T10:05:11.655Z,33.83
2018-09-27T10:07:40.410Z,11.93
2018-09-27T10:10:09.259Z,13.77
2018-09-27T10:12:37.990Z,14.43
2018-09-27T10:15:11.823Z,11.83
2018-09-27T10:17:40.618Z,12.90
2018-09-27T10:20:09.491Z,14.93
2018-09-27T10:22:38.455Z,10.97
2018-09-27T10:25:07.296Z,15.57
2018-09-27T10:27:36.211Z,17.60
2018-09-27T10:30:05.463Z,9.40
2018-09-27T10:32:34.214Z,12.10
2018-09-27T10:35:02.949Z,14.13
2018-09-27T10:37:31.762Z,13.20
2018-09-27T10:40:00.538Z,8.60
2018-09-27T10:42:29.290Z,13.77
2018-09-27T10:44:58.016Z,9.53
2018-09-27T10:47:26.866Z,9.20
2018-09-27T10:49:55.658Z,11.30
2018-09-27T10:52:24.398Z,11.07
2018-09-27T10:54:53.228Z,10.70
2018-09-27T10:57:22.179Z,10.07
2018-09-27T10:59:50.959Z,12.67
2018-09-27T11:02:19.667Z,11.80
2018-09-27T11:04:48.570Z,11.83
2018-09-27T11:07:17.288Z,11.00
2018-09-27T11:09:46.116Z,13.60
2018-09-27T11:12:14.911Z,8.80
2018-09-27T11:14:43.783Z,5.57
2018-09-27T11:17:12.541Z,5.20
2018-09-27T11:19:41.245Z,3.63
2018-09-27T11:22:10.125Z,7.57
2018-09-27T11:24:38.694Z,7.27
2018-09-27T11:27:07.695Z,13.03
2018-09-27T11:29:41.547Z,4.43
2018-09-27T11:32:44.101Z,9.33
2018-09-27T11:35:13.035Z,4.00
2018-09-27T11:37:41.762Z,14.83
2018-09-27T11:40:11.294Z,4.33
2018-09-27T11:42:40.383Z,8.20
2018-09-27T11:45:09.582Z,5.60
2018-09-27T11:47:38.330Z,4.70
2018-09-27T11:50:07.333Z,4.33
2018-09-27T11:52:35.892Z,5.40
2018-09-27T11:55:04.717Z,4.53
2018-09-27T11:57:33.426Z,5.50
2018-09-27T12:00:02.116Z,5.70
2018-09-27T12:02:30.884Z,4.03
2018-09-27T12:04:59.663Z,4.50
2018-09-27T12:07:28.438Z,3.57
2018-09-27T12:09:57.090Z,3.97
2018-09-27T12:12:25.935Z,3.80
2018-09-27T12:14:55.339Z,6.17
2018-09-27T12:17:24.160Z,4.50
2018-09-27T12:19:52.977Z,3.33
2018-09-27T12:22:21.687Z,4.17
2018-09-27T12:24:50.401Z,3.63
2018-09-27T12:27:19.095Z,3.77
2018-09-27T12:29:47.844Z,3.50
2018-09-27T12:32:16.671Z,3.50
2018-09-27T12:34:45.451Z,3.20
2018-09-27T12:37:14.219Z,2.80
2018-09-27T12:39:43.112Z,3.00
2018-09-27T12:42:12.532Z,3.47
2018-09-27T12:44:41.190Z,2.07
2018-09-27T12:47:09.973Z,2.63
2018-09-27T12:49:38.738Z,4.60
2018-09-27T12:52:07.699Z,2.73
2018-09-27T12:54:36.314Z,3.10
2018-09-27T12:57:05.084Z,2.73
2018-09-27T12:59:33.839Z,4.60
2018-09-27T13:02:02.728Z,4.33
2018-09-27T13:04:31.313Z,3.73
2018-09-27T13:07:00.157Z,3.00
2018-09-27T13:09:29.056Z,2.70
2018-09-27T13:11:57.612Z,3.20
2018-09-27T13:14:26.391Z,3.77
2018-09-27T13:16:55.181Z,3.40
2018-09-27T13:19:23.935Z,3.03
2018-09-27T13:21:52.717Z,4.40
2018-09-27T13:24:21.410Z,3.03
2018-09-27T13:26:50.148Z,5.00
2018-09-27T13:29:18.913Z,2.97
2018-09-27T13:31:47.619Z,3.00
2018-09-27T13:34:16.361Z,2.90
2018-09-27T13:36:45.043Z,3.30
2018-09-27T13:39:13.775Z,3.40
2018-09-27T13:41:42.487Z,2.90
2018-09-27T13:44:11.182Z,3.17
2018-09-27T13:46:39.916Z,2.33
2018-09-27T13:49:08.740Z,3.00
2018-09-27T13:51:37.447Z,4.90
2018-09-27T13:54:06.164Z,3.73
2018-09-27T13:56:34.974Z,4.17
2018-09-27T13:59:03.761Z,2.53
2018-09-27T14:01:32.463Z,2.47
2018-09-27T14:04:01.183Z,3.47
2018-09-27T14:06:29.900Z,2.47
2018-09-27T14:08:58.661Z,3.00
2018-09-27T14:11:27.401Z,3.67
2018-09-27T14:13:56.141Z,7.90
2018-09-27T14:16:24.838Z,10.33
2018-09-27T14:18:53.514Z,4.50
2018-09-27T14:21:22.222Z,3.93
2018-09-27T14:23:50.999Z,3.00
2018-09-27T14:26:19.733Z,2.90
2018-09-27T14:28:49.823Z,4.60
2018-09-27T14:31:18.494Z,4.50
2018-09-27T14:33:47.198Z,2.00
2018-09-27T14:36:16.370Z,2.60
2018-09-27T14:38:45.086Z,3.20
2018-09-27T14:41:13.750Z,3.03
2018-09-27T14:43:42.589Z,4.23
2018-09-27T14:46:11.360Z,2.60
2018-09-27T14:48:40.093Z,2.57
2018-09-27T14:51:08.830Z,4.63
2018-09-27T14:53:37.574Z,2.33
2018-09-27T14:56:06.349Z,6.93
2018-09-27T14:58:35.036Z,3.47
2018-09-27T15:01:03.814Z,2.63
2018-09-27T15:03:32.526Z,3.50
2018-09-27T15:06:01.276Z,7.20
2018-09-27T15:08:30.111Z,2.70
2018-09-27T15:10:58.914Z,6.65
2018-09-27T15:13:27.620Z,5.20
2018-09-27T15:15:56.302Z,9.37
2018-09-27T15:18:25.066Z,3.73
2018-09-27T15:20:53.970Z,8.03
2018-09-27T15:23:22.676Z,10.03
2018-09-27T15:25:51.495Z,4.23
2018-09-27T15:28:20.250Z,3.10
2018-09-27T15:30:49.263Z,5.67
2018-09-27T15:33:17.911Z,7.97
2018-09-27T15:35:46.659Z,3.30
2018-09-27T15:38:15.458Z,9.33
2018-09-27T15:40:44.203Z,7.90
2018-09-27T15:43:12.961Z,13.70
2018-09-27T15:45:41.672Z,7.50
2018-09-27T15:48:10.543Z,6.80
2018-09-27T15:50:39.307Z,7.90
2018-09-27T15:53:08.022Z,9.53
2018-09-27T15:55:36.798Z,7.80
2018-09-27T15:58:05.725Z,8.57
2018-09-27T16:00:34.504Z,10.97
2018-09-27T16:03:03.310Z,6.43
2018-09-27T16:05:32.091Z,6.93
2018-09-27T16:08:00.796Z,15.63
2018-09-27T16:10:29.762Z,11.53
2018-09-27T16:12:58.455Z,5.10
2018-09-27T16:15:27.618Z,6.10
2018-09-27T16:17:56.396Z,5.17
2018-09-27T16:20:25.197Z,6.70
2018-09-27T16:22:55.639Z,9.20
2018-09-27T16:25:24.362Z,12.13
2018-09-27T16:27:53.095Z,8.93
2018-09-27T16:30:21.816Z,5.47
2018-09-27T16:32:50.579Z,10.90
2018-09-27T16:35:20.283Z,6.17
2018-09-27T16:37:48.946Z,7.73
2018-09-27T16:40:17.728Z,10.97
2018-09-27T16:42:46.473Z,8.67
2018-09-27T16:45:15.215Z,11.17
2018-09-27T16:47:43.965Z,9.63
2018-09-27T16:50:12.880Z,4.43
2018-09-27T16:52:41.598Z,7.27
2018-09-27T16:55:10.308Z,10.17
2018-09-27T16:57:39.101Z,13.10
2018-09-27T17:00:08.203Z,8.90
2018-09-27T17:02:36.890Z,5.93
2018-09-27T17:05:05.647Z,10.13
2018-09-27T17:07:34.362Z,5.00
2018-09-27T17:10:03.064Z,10.20
2018-09-27T17:12:31.728Z,16.47
2018-09-27T17:15:00.462Z,6.00
2018-09-27T17:17:29.249Z,6.33
2018-09-27T17:19:57.905Z,5.63
2018-09-27T17:22:26.910Z,7.10
2018-09-27T17:24:55.646Z,5.90
2018-09-27T17:27:24.338Z,3.87
2018-09-27T17:29:53.013Z,4.17
2018-09-27T17:32:21.717Z,5.80
2018-09-27T17:34:50.399Z,5.43
2018-09-27T17:37:19.095Z,6.80
2018-09-27T17:39:48.683Z,6.83
2018-09-27T17:42:17.574Z,6.23
2018-09-27T17:44:46.276Z,8.20
2018-09-27T17:49:59.377Z,8.00
2018-09-27T17:52:28.100Z,4.23
2018-09-27T17:54:56.866Z,7.90
2018-09-27T17:57:25.663Z,10.80
2018-09-27T17:59:55.785Z,12.63
2018-09-27T18:02:25.098Z,14.10
2018-09-27T18:04:53.799Z,6.07
2018-09-27T18:07:22.534Z,8.07
2018-09-27T18:09:51.264Z,7.10
2018-09-27T18:12:19.929Z,7.27
2018-09-27T18:14:48.746Z,6.70
2018-09-27T18:17:17.477Z,5.77
2018-09-27T18:19:47.460Z,11.00
2018-09-27T18:22:16.238Z,5.20
2018-09-27T18:24:45.022Z,13.23
2018-09-27T18:27:13.733Z,8.80
2018-09-27T18:29:42.522Z,9.00
2018-09-27T18:32:11.333Z,5.40
2018-09-27T18:34:40.052Z,6.60
2018-09-27T18:37:09.540Z,7.60
2018-09-27T18:39:38.338Z,6.40
2018-09-27T18:42:07.406Z,8.40
2018-09-27T18:44:36.219Z,9.63
2018-09-27T18:47:05.130Z,12.63
2018-09-27T18:49:33.905Z,9.80
2018-09-27T18:52:02.684Z,11.90
2018-09-27T18:54:31.455Z,7.50
2018-09-27T18:57:00.092Z,13.93
2018-09-27T18:59:29.152Z,5.83
2018-09-27T19:01:58.140Z,10.80
2018-09-27T19:04:26.891Z,10.87
2018-09-27T19:06:55.717Z,10.23
2018-09-27T19:09:24.600Z,7.60
2018-09-27T19:11:55.282Z,18.33
2018-09-27T19:14:24.095Z,17.67
2018-09-27T19:16:52.959Z,13.97
2018-09-27T19:19:21.650Z,11.07
2018-09-27T19:21:50.355Z,5.50
2018-09-27T19:24:19.112Z,9.80
2018-09-27T19:26:47.897Z,9.80
2018-09-27T19:29:16.701Z,5.17
2018-09-27T19:31:45.394Z,7.50
2018-09-27T19:34:14.127Z,5.20
2018-09-27T19:36:43.090Z,5.00
2018-09-27T19:39:11.910Z,8.27
2018-09-27T19:41:41.129Z,7.73
2018-09-27T19:44:09.854Z,5.90
2018-09-27T19:46:40.062Z,10.40
2018-09-27T19:49:09.091Z,9.07
2018-09-27T19:51:37.969Z,7.60
2018-09-27T19:54:06.712Z,8.80
2018-09-27T19:56:35.436Z,6.77
2018-09-27T19:59:04.141Z,8.60
2018-09-27T20:01:32.806Z,12.43
2018-09-27T20:04:01.602Z,11.30
2018-09-27T20:06:30.371Z,7.10
2018-09-27T20:08:59.025Z,7.77
2018-09-27T20:11:27.934Z,7.63
2018-09-27T20:13:56.643Z,6.87
2018-09-27T20:16:25.582Z,7.33
2018-09-27T20:18:54.124Z,8.77
2018-09-27T20:21:23.400Z,7.27
2018-09-27T20:23:52.078Z,9.33
2018-09-27T20:26:20.786Z,10.37
2018-09-27T20:28:49.463Z,7.13
2018-09-27T20:31:18.206Z,10.77
2018-09-27T20:33:46.953Z,8.97
2018-09-27T20:36:15.680Z,7.47
2018-09-27T20:38:44.362Z,5.50
2018-09-27T20:41:13.126Z,21.33
2018-09-27T20:43:41.960Z,9.10
2018-09-27T20:46:10.670Z,12.23
2018-09-27T20:48:39.457Z,10.63
2018-09-27T20:51:08.157Z,9.27
2018-09-27T20:53:37.013Z,7.60
2018-09-27T20:56:05.676Z,7.83
2018-09-27T20:58:34.374Z,10.43
2018-09-27T21:01:03.185Z,9.50
2018-09-27T21:03:31.862Z,13.53
2018-09-27T21:06:00.542Z,8.90
2018-09-27T21:08:29.221Z,9.30
2018-09-27T21:10:57.939Z,6.83
2018-09-27T21:13:26.626Z,7.37
2018-09-27T21:15:55.373Z,9.90
2018-09-27T21:18:24.071Z,7.20
2018-09-27T21:20:52.768Z,8.70
2018-09-27T21:23:21.450Z,7.70
2018-09-27T21:25:50.106Z,7.37
2018-09-27T21:28:18.766Z,5.53
2018-09-27T21:30:47.424Z,10.53
2018-09-27T21:33:16.179Z,8.17
2018-09-27T21:35:44.945Z,7.50
2018-09-27T21:38:13.604Z,7.47
2018-09-27T21:40:42.246Z,8.63
2018-09-27T21:43:10.947Z,7.10
2018-09-27T21:45:45.074Z,8.37
2018-09-27T21:48:13.790Z,8.97
2018-09-27T21:50:42.530Z,7.30
2018-09-27T21:53:11.305Z,7.30
2018-09-27T21:55:45.380Z,8.27
2018-09-27T21:58:14.177Z,8.80
2018-09-27T22:00:42.934Z,6.57
2018-09-27T22:03:11.611Z,7.77
2018-09-27T22:05:40.334Z,7.30
2018-09-27T22:08:09.106Z,8.33
2018-09-27T22:10:37.810Z,11.67
2018-09-27T22:13:06.515Z,8.83
2018-09-27T22:15:35.190Z,7.30
2018-09-27T22:18:03.914Z,9.47
2018-09-27T22:20:32.646Z,8.63
2018-09-27T22:23:01.350Z,9.33
2018-09-27T22:25:30.050Z,6.97
2018-09-27T22:27:58.758Z,21.23
2018-09-27T22:30:27.441Z,8.67
2018-09-27T22:32:56.235Z,6.40
2018-09-27T22:35:25.187Z,7.40
2018-09-27T22:37:59.440Z,8.37
2018-09-27T22:40:28.158Z,11.33
2018-09-27T22:42:56.835Z,11.13
2018-09-27T22:45:25.548Z,9.03
2018-09-27T22:47:54.233Z,7.90
2018-09-27T22:50:23.013Z,6.70
2018-09-27T22:52:51.670Z,9.00
2018-09-27T22:55:20.416Z,6.80
2018-09-27T22:57:49.154Z,8.30
2018-09-27T23:00:17.940Z,11.80
2018-09-27T23:02:46.754Z,6.80
2018-09-27T23:05:15.471Z,8.00
2018-09-27T23:07:44.234Z,8.33
2018-09-27T23:10:13.011Z,12.40
2018-09-27T23:12:41.710Z,7.93
2018-09-27T23:15:10.431Z,9.40
2018-09-27T23:17:39.160Z,6.13
2018-09-27T23:20:09.168Z,9.83
2018-09-27T23:22:37.804Z,9.70
2018-09-27T23:25:06.457Z,7.33
2018-09-27T23:27:35.185Z,10.17
2018-09-27T23:30:03.821Z,6.50
2018-09-27T23:32:32.476Z,11.20
2018-09-27T23:35:01.111Z,8.77
2018-09-27T23:37:29.806Z,8.60
2018-09-27T23:39:58.457Z,11.23
2018-09-27T23:42:27.197Z,12.97
2018-09-27T23:44:55.854Z,9.57
2018-09-27T23:47:24.531Z,10.83
2018-09-27T23:49:53.296Z,10.20
2018-09-27T23:52:21.942Z,11.57
2018-09-27T23:54:50.624Z,8.93
2018-09-27T23:57:24.389Z,9.43
2018-09-27T23:59:53.150Z,8.50
